This is the latest recevied weather packets stored in our database for station/object KC3BHK-2. If no packets are shown the sender has not sent any weather packets the latest 10 day(s).
| Time | Temp. | Humidity | Pressure | Rain* | Wind** | Luminosity | Snow |
|---|---|---|---|---|---|---|---|
| 1777411908 | 15° C | - | - | 0 mm | 1.34 m/s, 51° | - | - |
| 1777411603 | 15° C | - | - | 0 mm | 0 m/s | - | - |
| 1777411299 | 15° C | - | - | 0 mm | 1.34 m/s, 79° | - | - |
| 1777410994 | 15° C | - | - | 0 mm | 1.79 m/s, 135° | - | - |
| 1777410689 | 14.44° C | - | - | 0 mm | 0.45 m/s, 49° | - | - |
| 1777410382 | 15° C | - | - | 0 mm | 0.45 m/s, 60° | - | - |
| 1777410077 | 14.44° C | - | - | 0 mm | 1.34 m/s, 86° | - | - |
| 1777409772 | 15° C | - | - | 0 mm | 0.89 m/s, 73° | - | - |
| 1777409162 | 15° C | - | - | 0 mm | 0.89 m/s, 114° | - | - |
| 1777408858 | 15° C | - | - | 0 mm | 1.34 m/s, 80° | - | - |
| 1777408550 | 15° C | - | - | 0 mm | 0.89 m/s, 66° | - | - |
| 1777408245 | 15° C | - | - | 0 mm | 2.24 m/s, 129° | - | - |
| 1777407941 | 15.56° C | - | - | 0 mm | 1.34 m/s, 77° | - | - |
| 1777407636 | 15.56° C | - | - | 0 mm | 0.45 m/s, 73° | - | - |
| 1777407331 | 15° C | - | - | 0 mm | 0.45 m/s, 80° | - | - |
| 1777407027 | 15.56° C | - | - | 0 mm | 0.89 m/s, 117° | - | - |
| 1777406719 | 15.56° C | - | - | 0 mm | 1.79 m/s, 122° | - | - |
| 1777406414 | 15° C | - | - | 0 mm | 1.34 m/s, 76° | - | - |
| 1777406109 | 15° C | - | - | 0 mm | 1.34 m/s, 122° | - | - |
| 1777405805 | 14.44° C | - | - | 0 mm | 0.89 m/s, 76° | - | - |
| 1777405500 | 14.44° C | - | - | 0 mm | 1.34 m/s, 121° | - | - |
| 1777405195 | 14.44° C | - | - | 0 mm | 0.45 m/s, 83° | - | - |
| 1777404888 | 14.44° C | - | - | 0 mm | 3.13 m/s, 128° | - | - |
| 1777404583 | 14.44° C | - | - | 0 mm | 1.79 m/s, 124° | - | - |
| 1777404279 | 14.44° C | - | - | 0 mm | 2.24 m/s, 155° | - | - |
* Rain latest hour (hover to see other rain measurements)
** Current wind speed in m/s (hover to see current wind gust speed)